sensor_id;sensor_type;location;lat;lon;timestamp;pressure;altitude;pressure_sealevel;temperature;humidity
13434;BME280;6789;47.678;9.158;2023-08-06T00:04:53;96226.97;;;15.82;100.00
13434;BME280;6789;47.678;9.158;2023-08-06T00:09:59;96224.09;;;15.74;100.00
13434;BME280;6789;47.678;9.158;2023-08-06T00:15:07;96215.38;;;15.69;100.00
13434;BME280;6789;47.678;9.158;2023-08-06T00:20:13;96225.41;;;15.67;100.00
13434;BME280;6789;47.678;9.158;2023-08-06T00:25:22;96215.13;;;15.65;100.00
13434;BME280;6789;47.678;9.158;2023-08-06T00:30:38;96204.81;;;15.54;100.00
13434;BME280;6789;47.678;9.158;2023-08-06T00:35:32;96180.56;;;15.47;100.00
13434;BME280;6789;47.678;9.158;2023-08-06T00:40:24;96182.66;;;15.35;100.00
13434;BME280;6789;47.678;9.158;2023-08-06T00:45:34;96179.00;;;15.26;100.00
13434;BME280;6789;47.678;9.158;2023-08-06T00:50:51;96180.03;;;15.15;100.00
13434;BME280;6789;47.678;9.158;2023-08-06T00:56:08;96172.63;;;15.12;100.00
13434;BME280;6789;47.678;9.158;2023-08-06T01:01:18;96170.78;;;14.98;100.00
13434;BME280;6789;47.678;9.158;2023-08-06T01:06:12;96166.84;;;14.90;100.00
13434;BME280;6789;47.678;9.158;2023-08-06T01:17:15;96151.53;;;14.82;100.00
13434;BME280;6789;47.678;9.158;2023-08-06T01:22:21;96151.53;;;14.72;100.00
13434;BME280;6789;47.678;9.158;2023-08-06T01:27:48;96150.44;;;14.68;100.00
13434;BME280;6789;47.678;9.158;2023-08-06T01:33:02;96133.03;;;14.57;100.00
13434;BME280;6789;47.678;9.158;2023-08-06T01:38:42;96133.81;;;14.48;100.00
13434;BME280;6789;47.678;9.158;2023-08-06T01:44:00;96138.03;;;14.44;100.00
13434;BME280;6789;47.678;9.158;2023-08-06T01:49:07;96135.09;;;14.35;100.00
13434;BME280;6789;47.678;9.158;2023-08-06T01:54:14;96137.75;;;14.35;100.00
13434;BME280;6789;47.678;9.158;2023-08-06T01:59:06;96144.59;;;14.31;100.00
13434;BME280;6789;47.678;9.158;2023-08-06T02:03:58;96138.56;;;14.26;100.00
13434;BME280;6789;47.678;9.158;2023-08-06T02:09:35;96140.66;;;14.19;100.00
13434;BME280;6789;47.678;9.158;2023-08-06T02:14:27;96130.88;;;14.20;100.00
13434;BME280;6789;47.678;9.158;2023-08-06T02:19:33;96110.31;;;14.17;100.00
13434;BME280;6789;47.678;9.158;2023-08-06T02:24:25;96108.47;;;14.22;100.00
13434;BME280;6789;47.678;9.158;2023-08-06T02:29:31;96103.44;;;14.21;100.00
13434;BME280;6789;47.678;9.158;2023-08-06T02:34:37;96109.28;;;14.32;100.00
13434;BME280;6789;47.678;9.158;2023-08-06T02:39:44;96092.66;;;14.42;100.00
13434;BME280;6789;47.678;9.158;2023-08-06T02:44:36;96095.00;;;14.24;100.00
13434;BME280;6789;47.678;9.158;2023-08-06T02:49:28;96092.34;;;14.14;100.00
13434;BME280;6789;47.678;9.158;2023-08-06T02:54:19;96087.34;;;14.22;100.00
13434;BME280;6789;47.678;9.158;2023-08-06T02:59:12;96076.53;;;14.19;100.00
13434;BME280;6789;47.678;9.158;2023-08-06T03:04:04;96078.66;;;14.27;100.00
13434;BME280;6789;47.678;9.158;2023-08-06T03:08:56;96071.81;;;14.26;100.00
13434;BME280;6789;47.678;9.158;2023-08-06T03:13:48;96071.53;;;14.27;100.00
13434;BME280;6789;47.678;9.158;2023-08-06T03:18:40;96064.94;;;14.25;100.00
13434;BME280;6789;47.678;9.158;2023-08-06T03:23:32;96070.47;;;14.23;100.00
13434;BME280;6789;47.678;9.158;2023-08-06T03:28:23;96063.91;;;14.21;100.00
13434;BME280;6789;47.678;9.158;2023-08-06T03:33:15;96069.16;;;14.21;100.00
13434;BME280;6789;47.678;9.158;2023-08-06T03:38:07;96074.47;;;14.45;100.00
13434;BME280;6789;47.678;9.158;2023-08-06T03:42:59;96073.38;;;14.36;100.00
13434;BME280;6789;47.678;9.158;2023-08-06T03:47:50;96069.97;;;14.31;100.00
13434;BME280;6789;47.678;9.158;2023-08-06T03:52:43;96068.63;;;14.24;100.00
13434;BME280;6789;47.678;9.158;2023-08-06T03:57:35;96073.94;;;14.33;100.00
13434;BME280;6789;47.678;9.158;2023-08-06T04:02:42;96076.84;;;14.42;100.00
13434;BME280;6789;47.678;9.158;2023-08-06T04:07:35;96076.03;;;14.51;100.00
13434;BME280;6789;47.678;9.158;2023-08-06T04:12:27;96064.94;;;14.64;100.00
13434;BME280;6789;47.678;9.158;2023-08-06T04:17:20;96069.72;;;14.72;100.00
13434;BME280;6789;47.678;9.158;2023-08-06T04:22:12;96070.72;;;14.81;100.00
13434;BME280;6789;47.678;9.158;2023-08-06T04:27:04;96063.88;;;14.90;100.00
13434;BME280;6789;47.678;9.158;2023-08-06T04:31:56;96067.03;;;14.97;100.00
13434;BME280;6789;47.678;9.158;2023-08-06T04:36:48;96075.94;;;15.11;98.68
13434;BME280;6789;47.678;9.158;2023-08-06T04:41:40;96082.03;;;15.16;98.40
13434;BME280;6789;47.678;9.158;2023-08-06T04:46:32;96109.75;;;15.24;100.00
13434;BME280;6789;47.678;9.158;2023-08-06T04:51:24;96111.66;;;14.94;100.00
13434;BME280;6789;47.678;9.158;2023-08-06T04:56:16;96106.63;;;14.87;100.00
13434;BME280;6789;47.678;9.158;2023-08-06T05:01:08;96118.78;;;14.78;100.00
13434;BME280;6789;47.678;9.158;2023-08-06T05:06:00;96117.72;;;14.74;100.00
13434;BME280;6789;47.678;9.158;2023-08-06T05:10:52;96126.44;;;14.70;100.00
13434;BME280;6789;47.678;9.158;2023-08-06T05:15:43;96134.63;;;14.58;100.00
13434;BME280;6789;47.678;9.158;2023-08-06T05:20:40;96147.28;;;14.46;100.00
13434;BME280;6789;47.678;9.158;2023-08-06T05:25:34;96155.44;;;14.30;100.00
13434;BME280;6789;47.678;9.158;2023-08-06T05:30:26;96166.25;;;14.28;100.00
13434;BME280;6789;47.678;9.158;2023-08-06T05:35:18;96172.56;;;14.23;100.00
13434;BME280;6789;47.678;9.158;2023-08-06T05:40:10;96176.25;;;14.27;100.00
13434;BME280;6789;47.678;9.158;2023-08-06T05:45:02;96171.47;;;14.19;100.00
13434;BME280;6789;47.678;9.158;2023-08-06T05:49:54;96173.34;;;14.18;100.00
13434;BME280;6789;47.678;9.158;2023-08-06T05:54:46;96177.03;;;14.22;100.00
13434;BME280;6789;47.678;9.158;2023-08-06T05:59:37;96205.00;;;14.28;100.00
13434;BME280;6789;47.678;9.158;2023-08-06T06:04:31;96193.69;;;14.42;100.00
13434;BME280;6789;47.678;9.158;2023-08-06T06:09:23;96194.25;;;14.49;100.00
13434;BME280;6789;47.678;9.158;2023-08-06T06:14:16;96194.53;;;14.68;100.00
13434;BME280;6789;47.678;9.158;2023-08-06T06:19:08;96189.00;;;14.74;100.00
13434;BME280;6789;47.678;9.158;2023-08-06T06:24:00;96180.56;;;14.82;95.78
13434;BME280;6789;47.678;9.158;2023-08-06T06:28:52;96206.97;;;14.77;95.71
13434;BME280;6789;47.678;9.158;2023-08-06T06:33:44;96195.34;;;14.78;95.38
13434;BME280;6789;47.678;9.158;2023-08-06T06:38:36;96198.25;;;14.82;96.23
13434;BME280;6789;47.678;9.158;2023-08-06T06:43:28;96194.56;;;14.88;95.85
13434;BME280;6789;47.678;9.158;2023-08-06T06:48:19;96190.84;;;15.33;93.59
13434;BME280;6789;47.678;9.158;2023-08-06T06:53:11;96200.06;;;15.61;91.20
13434;BME280;6789;47.678;9.158;2023-08-06T06:58:03;96196.06;;;15.73;91.98
13434;BME280;6789;47.678;9.158;2023-08-06T07:02:55;96195.81;;;15.60;90.82
13434;BME280;6789;47.678;9.158;2023-08-06T07:07:46;96202.69;;;15.71;91.59
13434;BME280;6789;47.678;9.158;2023-08-06T07:12:38;96215.38;;;15.69;93.73
13434;BME280;6789;47.678;9.158;2023-08-06T07:17:30;96216.19;;;15.59;93.21
13434;BME280;6789;47.678;9.158;2023-08-06T07:22:22;96223.63;;;15.27;93.34
13434;BME280;6789;47.678;9.158;2023-08-06T07:27:14;96220.97;;;15.17;91.65
13434;BME280;6789;47.678;9.158;2023-08-06T07:32:07;96227.06;;;15.23;93.11
13434;BME280;6789;47.678;9.158;2023-08-06T07:36:59;96225.72;;;15.15;94.58
13434;BME280;6789;47.678;9.158;2023-08-06T07:41:52;96239.72;;;15.21;93.76
13434;BME280;6789;47.678;9.158;2023-08-06T07:46:44;96242.63;;;15.09;95.15
13434;BME280;6789;47.678;9.158;2023-08-06T07:51:36;96234.44;;;15.06;94.98
13434;BME280;6789;47.678;9.158;2023-08-06T07:56:28;96235.53;;;15.25;92.52
13434;BME280;6789;47.678;9.158;2023-08-06T08:01:20;96224.41;;;15.43;91.79
13434;BME280;6789;47.678;9.158;2023-08-06T08:06:12;96241.84;;;15.59;91.06
13434;BME280;6789;47.678;9.158;2023-08-06T08:11:04;96240.75;;;15.60;94.97
13434;BME280;6789;47.678;9.158;2023-08-06T08:15:58;96246.34;;;15.48;96.50
13434;BME280;6789;47.678;9.158;2023-08-06T08:20:50;96251.63;;;15.48;96.81
13434;BME280;6789;47.678;9.158;2023-08-06T08:25:42;96257.19;;;15.32;98.17
13434;BME280;6789;47.678;9.158;2023-08-06T08:30:34;96253.47;;;15.08;100.00
13434;BME280;6789;47.678;9.158;2023-08-06T08:35:26;96270.63;;;15.00;100.00
13434;BME280;6789;47.678;9.158;2023-08-06T08:40:18;96253.44;;;14.83;100.00
13434;BME280;6789;47.678;9.158;2023-08-06T08:45:14;96270.31;;;14.87;100.00
13434;BME280;6789;47.678;9.158;2023-08-06T08:50:09;96274.81;;;14.97;100.00
13434;BME280;6789;47.678;9.158;2023-08-06T08:55:02;96275.34;;;14.89;100.00
13434;BME280;6789;47.678;9.158;2023-08-06T08:59:56;96282.22;;;14.95;100.00
13434;BME280;6789;47.678;9.158;2023-08-06T09:04:49;96281.97;;;14.91;100.00
13434;BME280;6789;47.678;9.158;2023-08-06T09:09:43;96289.34;;;14.99;100.00
13434;BME280;6789;47.678;9.158;2023-08-06T09:14:37;96296.22;;;14.90;100.00
13434;BME280;6789;47.678;9.158;2023-08-06T09:19:44;96296.44;;;14.79;100.00
13434;BME280;6789;47.678;9.158;2023-08-06T09:24:41;96304.66;;;14.82;100.00
13434;BME280;6789;47.678;9.158;2023-08-06T09:29:33;96309.47;;;15.15;100.00
13434;BME280;6789;47.678;9.158;2023-08-06T09:34:24;96315.03;;;15.33;100.00
13434;BME280;6789;47.678;9.158;2023-08-06T09:39:26;96322.44;;;15.26;100.00
13434;BME280;6789;47.678;9.158;2023-08-06T09:44:20;96311.09;;;15.31;100.00
13434;BME280;6789;47.678;9.158;2023-08-06T09:49:14;96306.88;;;15.40;100.00
13434;BME280;6789;47.678;9.158;2023-08-06T09:54:07;96307.63;;;15.50;100.00
13434;BME280;6789;47.678;9.158;2023-08-06T09:59:18;96307.13;;;15.63;100.00
13434;BME280;6789;47.678;9.158;2023-08-06T10:04:13;96308.09;;;16.17;99.44
13434;BME280;6789;47.678;9.158;2023-08-06T10:09:15;96316.00;;;16.95;93.39
13434;BME280;6789;47.678;9.158;2023-08-06T10:14:38;96317.19;;;17.17;90.71
13434;BME280;6789;47.678;9.158;2023-08-06T10:19:31;96311.47;;;17.43;88.97
13434;BME280;6789;47.678;9.158;2023-08-06T10:24:23;96311.75;;;17.75;86.35
13434;BME280;6789;47.678;9.158;2023-08-06T10:29:37;96305.28;;;17.53;89.78
13434;BME280;6789;47.678;9.158;2023-08-06T10:34:57;96323.44;;;16.93;93.06
13434;BME280;6789;47.678;9.158;2023-08-06T10:39:51;96322.28;;;16.55;94.32
13434;BME280;6789;47.678;9.158;2023-08-06T10:45:17;96321.22;;;16.61;93.79
13434;BME280;6789;47.678;9.158;2023-08-06T10:50:13;96323.81;;;16.71;93.52
13434;BME280;6789;47.678;9.158;2023-08-06T10:55:06;96327.44;;;16.85;93.87
13434;BME280;6789;47.678;9.158;2023-08-06T10:59:58;96325.13;;;17.22;88.99
13434;BME280;6789;47.678;9.158;2023-08-06T11:05:09;96321.25;;;17.48;86.77
13434;BME280;6789;47.678;9.158;2023-08-06T11:10:08;96320.69;;;17.51;85.81
13434;BME280;6789;47.678;9.158;2023-08-06T11:15:01;96324.41;;;17.50;84.69
13434;BME280;6789;47.678;9.158;2023-08-06T11:19:53;96333.13;;;17.55;82.99
13434;BME280;6789;47.678;9.158;2023-08-06T11:24:45;96333.81;;;17.32;85.36
13434;BME280;6789;47.678;9.158;2023-08-06T11:29:38;96342.72;;;17.46;85.02
13434;BME280;6789;47.678;9.158;2023-08-06T11:34:30;96333.44;;;17.82;80.93
13434;BME280;6789;47.678;9.158;2023-08-06T11:39:24;96342.47;;;18.09;78.67
13434;BME280;6789;47.678;9.158;2023-08-06T11:44:20;96341.25;;;17.97;77.56
13434;BME280;6789;47.678;9.158;2023-08-06T11:49:19;96352.00;;;17.82;78.39
13434;BME280;6789;47.678;9.158;2023-08-06T11:54:13;96357.41;;;17.67;77.59
13434;BME280;6789;47.678;9.158;2023-08-06T11:59:19;96353.31;;;17.46;77.11
13434;BME280;6789;47.678;9.158;2023-08-06T12:04:14;96356.88;;;17.70;77.14
13434;BME280;6789;47.678;9.158;2023-08-06T12:09:05;96359.25;;;17.72;78.60
13434;BME280;6789;47.678;9.158;2023-08-06T12:13:57;96368.13;;;17.57;80.94
13434;BME280;6789;47.678;9.158;2023-08-06T12:18:51;96368.91;;;17.58;79.86
13434;BME280;6789;47.678;9.158;2023-08-06T12:23:42;96366.63;;;17.41;79.44
13434;BME280;6789;47.678;9.158;2023-08-06T12:28:34;96360.34;;;17.32;79.56
13434;BME280;6789;47.678;9.158;2023-08-06T12:33:28;96370.09;;;16.89;78.08
13434;BME280;6789;47.678;9.158;2023-08-06T12:38:34;96381.59;;;17.17;78.93
13434;BME280;6789;47.678;9.158;2023-08-06T12:43:25;96379.00;;;17.03;79.78
13434;BME280;6789;47.678;9.158;2023-08-06T12:48:17;96376.91;;;17.00;77.85
13434;BME280;6789;47.678;9.158;2023-08-06T12:53:24;96370.94;;;17.22;80.77
13434;BME280;6789;47.678;9.158;2023-08-06T12:58:17;96376.75;;;17.34;77.94
13434;BME280;6789;47.678;9.158;2023-08-06T13:03:13;96375.38;;;17.42;78.71
13434;BME280;6789;47.678;9.158;2023-08-06T13:08:05;96374.78;;;17.83;74.35
13434;BME280;6789;47.678;9.158;2023-08-06T13:13:11;96383.69;;;17.97;74.38
13434;BME280;6789;47.678;9.158;2023-08-06T13:18:11;96393.53;;;17.63;73.53
13434;BME280;6789;47.678;9.158;2023-08-06T13:23:06;96395.22;;;17.49;74.01
13434;BME280;6789;47.678;9.158;2023-08-06T13:28:12;96398.09;;;17.53;74.29
13434;BME280;6789;47.678;9.158;2023-08-06T13:33:05;96393.88;;;17.85;71.62
13434;BME280;6789;47.678;9.158;2023-08-06T13:37:59;96386.44;;;17.87;70.22
13434;BME280;6789;47.678;9.158;2023-08-06T13:42:55;96386.28;;;18.07;70.19
13434;BME280;6789;47.678;9.158;2023-08-06T13:47:50;96394.56;;;18.00;69.53
13434;BME280;6789;47.678;9.158;2023-08-06T13:52:42;96384.59;;;18.16;69.29
13434;BME280;6789;47.678;9.158;2023-08-06T13:57:35;96400.88;;;18.61;66.57
13434;BME280;6789;47.678;9.158;2023-08-06T14:02:30;96408.56;;;18.39;66.57
13434;BME280;6789;47.678;9.158;2023-08-06T14:07:36;96408.91;;;18.56;66.48
13434;BME280;6789;47.678;9.158;2023-08-06T14:12:27;96415.59;;;18.54;64.85
13434;BME280;6789;47.678;9.158;2023-08-06T14:17:19;96422.13;;;18.66;65.49
13434;BME280;6789;47.678;9.158;2023-08-06T14:22:11;96428.09;;;18.76;64.91
13434;BME280;6789;47.678;9.158;2023-08-06T14:27:03;96430.19;;;18.79;64.98
13434;BME280;6789;47.678;9.158;2023-08-06T14:31:55;96443.78;;;18.78;65.38
13434;BME280;6789;47.678;9.158;2023-08-06T14:36:47;96450.59;;;18.61;66.90
13434;BME280;6789;47.678;9.158;2023-08-06T14:41:39;96452.53;;;18.50;66.80
13434;BME280;6789;47.678;9.158;2023-08-06T14:46:31;96459.81;;;18.40;68.00
13434;BME280;6789;47.678;9.158;2023-08-06T14:51:22;96468.25;;;18.98;66.37
13434;BME280;6789;47.678;9.158;2023-08-06T14:56:14;96461.00;;;18.80;65.88
13434;BME280;6789;47.678;9.158;2023-08-06T15:01:20;96472.03;;;18.41;65.95
13434;BME280;6789;47.678;9.158;2023-08-06T15:06:12;96484.19;;;18.47;66.98
13434;BME280;6789;47.678;9.158;2023-08-06T15:11:04;96492.75;;;18.39;66.78
13434;BME280;6789;47.678;9.158;2023-08-06T15:15:56;96473.28;;;18.48;66.06
13434;BME280;6789;47.678;9.158;2023-08-06T15:20:47;96478.16;;;18.36;65.96
13434;BME280;6789;47.678;9.158;2023-08-06T15:25:41;96499.41;;;18.36;66.32
13434;BME280;6789;47.678;9.158;2023-08-06T15:30:33;96501.16;;;18.51;66.15
13434;BME280;6789;47.678;9.158;2023-08-06T15:35:25;96503.31;;;18.77;63.78
13434;BME280;6789;47.678;9.158;2023-08-06T15:40:17;96523.06;;;18.66;63.53
13434;BME280;6789;47.678;9.158;2023-08-06T15:45:09;96521.19;;;18.66;64.91
13434;BME280;6789;47.678;9.158;2023-08-06T15:50:02;96524.31;;;18.73;64.75
13434;BME280;6789;47.678;9.158;2023-08-06T15:55:05;96521.31;;;18.80;63.29
13434;BME280;6789;47.678;9.158;2023-08-06T15:59:58;96519.03;;;18.40;65.67
13434;BME280;6789;47.678;9.158;2023-08-06T16:04:50;96507.03;;;18.04;67.06
13434;BME280;6789;47.678;9.158;2023-08-06T16:09:42;96575.47;;;17.59;70.19
13434;BME280;6789;47.678;9.158;2023-08-06T16:14:36;96576.13;;;16.02;84.07
13434;BME280;6789;47.678;9.158;2023-08-06T16:19:28;96570.28;;;16.05;88.58
13434;BME280;6789;47.678;9.158;2023-08-06T16:24:20;96567.47;;;16.37;86.13
13434;BME280;6789;47.678;9.158;2023-08-06T16:29:26;96570.38;;;16.70;80.83
13434;BME280;6789;47.678;9.158;2023-08-06T16:34:33;96567.97;;;16.78;80.33
13434;BME280;6789;47.678;9.158;2023-08-06T16:39:24;96570.88;;;16.82;78.12
13434;BME280;6789;47.678;9.158;2023-08-06T16:44:19;96567.19;;;16.68;78.23
13434;BME280;6789;47.678;9.158;2023-08-06T16:49:11;96575.16;;;16.58;80.31
13434;BME280;6789;47.678;9.158;2023-08-06T16:54:03;96584.41;;;16.60;79.53
13434;BME280;6789;47.678;9.158;2023-08-06T16:58:54;96590.50;;;16.56;77.36
13434;BME280;6789;47.678;9.158;2023-08-06T17:03:47;96604.25;;;16.63;77.37
13434;BME280;6789;47.678;9.158;2023-08-06T17:08:53;96613.81;;;16.69;76.49
13434;BME280;6789;47.678;9.158;2023-08-06T17:13:47;96620.97;;;16.73;75.24
13434;BME280;6789;47.678;9.158;2023-08-06T17:18:38;96629.94;;;16.62;73.59
13434;BME280;6789;47.678;9.158;2023-08-06T17:23:31;96626.22;;;16.68;72.20
13434;BME280;6789;47.678;9.158;2023-08-06T17:28:24;96640.28;;;16.64;74.22
13434;BME280;6789;47.678;9.158;2023-08-06T17:33:16;96647.16;;;16.50;73.23
13434;BME280;6789;47.678;9.158;2023-08-06T17:38:12;96645.56;;;16.39;75.17
13434;BME280;6789;47.678;9.158;2023-08-06T17:43:04;96655.59;;;16.32;74.79
13434;BME280;6789;47.678;9.158;2023-08-06T17:47:56;96657.66;;;16.25;72.07
13434;BME280;6789;47.678;9.158;2023-08-06T17:52:49;96664.00;;;16.24;69.71
13434;BME280;6789;47.678;9.158;2023-08-06T17:57:42;96669.50;;;16.08;69.49
13434;BME280;6789;47.678;9.158;2023-08-06T18:02:34;96671.09;;;16.04;70.75
13434;BME280;6789;47.678;9.158;2023-08-06T18:07:27;96672.13;;;15.98;69.52
13434;BME280;6789;47.678;9.158;2023-08-06T18:12:19;96681.13;;;16.02;71.09
13434;BME280;6789;47.678;9.158;2023-08-06T18:17:11;96682.69;;;15.98;72.04
13434;BME280;6789;47.678;9.158;2023-08-06T18:22:03;96680.00;;;15.88;73.60
13434;BME280;6789;47.678;9.158;2023-08-06T18:27:00;96682.41;;;15.89;73.72
13434;BME280;6789;47.678;9.158;2023-08-06T18:31:54;96692.34;;;15.68;72.38
13434;BME280;6789;47.678;9.158;2023-08-06T18:36:46;96700.50;;;15.61;73.87
13434;BME280;6789;47.678;9.158;2023-08-06T18:41:39;96709.47;;;15.55;72.86
13434;BME280;6789;47.678;9.158;2023-08-06T18:46:31;96718.69;;;15.53;71.90
13434;BME280;6789;47.678;9.158;2023-08-06T18:51:37;96730.91;;;15.64;71.98
13434;BME280;6789;47.678;9.158;2023-08-06T18:56:31;96739.91;;;15.63;74.19
13434;BME280;6789;47.678;9.158;2023-08-06T19:01:27;96739.47;;;15.39;77.00
13434;BME280;6789;47.678;9.158;2023-08-06T19:06:19;96748.50;;;15.17;76.39
13434;BME280;6789;47.678;9.158;2023-08-06T19:11:11;96749.72;;;15.04;76.56
13434;BME280;6789;47.678;9.158;2023-08-06T19:16:17;96764.53;;;15.05;76.59
13434;BME280;6789;47.678;9.158;2023-08-06T19:21:11;96780.72;;;15.14;78.35
13434;BME280;6789;47.678;9.158;2023-08-06T19:26:04;96766.31;;;15.00;79.30
13434;BME280;6789;47.678;9.158;2023-08-06T19:31:10;96777.50;;;14.81;83.62
13434;BME280;6789;47.678;9.158;2023-08-06T19:36:03;96780.03;;;14.71;85.49
13434;BME280;6789;47.678;9.158;2023-08-06T19:41:06;96778.25;;;14.76;86.80
13434;BME280;6789;47.678;9.158;2023-08-06T19:46:00;96776.56;;;14.65;86.34
13434;BME280;6789;47.678;9.158;2023-08-06T19:50:55;96782.88;;;14.64;87.93
13434;BME280;6789;47.678;9.158;2023-08-06T19:55:53;96774.09;;;14.59;87.72
13434;BME280;6789;47.678;9.158;2023-08-06T20:00:47;96771.19;;;14.60;88.16
13434;BME280;6789;47.678;9.158;2023-08-06T20:05:40;96778.59;;;14.58;87.65
13434;BME280;6789;47.678;9.158;2023-08-06T20:10:32;96766.91;;;14.54;86.79
13434;BME280;6789;47.678;9.158;2023-08-06T20:15:27;96767.84;;;14.43;86.00
13434;BME280;6789;47.678;9.158;2023-08-06T20:20:23;96769.41;;;14.39;86.45
13434;BME280;6789;47.678;9.158;2023-08-06T20:25:32;96762.50;;;14.38;85.77
13434;BME280;6789;47.678;9.158;2023-08-06T20:30:24;96763.75;;;14.31;84.89
13434;BME280;6789;47.678;9.158;2023-08-06T20:35:16;96755.03;;;14.30;84.75
13434;BME280;6789;47.678;9.158;2023-08-06T20:40:09;96768.47;;;14.29;85.22
13434;BME280;6789;47.678;9.158;2023-08-06T20:45:01;96764.50;;;14.27;85.32
13434;BME280;6789;47.678;9.158;2023-08-06T20:49:53;96766.63;;;14.29;83.85
13434;BME280;6789;47.678;9.158;2023-08-06T20:54:45;96768.38;;;14.19;83.80
13434;BME280;6789;47.678;9.158;2023-08-06T20:59:37;96760.66;;;14.18;83.37
13434;BME280;6789;47.678;9.158;2023-08-06T21:04:29;96757.81;;;14.19;83.58
13434;BME280;6789;47.678;9.158;2023-08-06T21:09:21;96769.75;;;14.27;83.41
13434;BME280;6789;47.678;9.158;2023-08-06T21:14:14;96771.72;;;14.15;84.35
13434;BME280;6789;47.678;9.158;2023-08-06T21:19:06;96775.09;;;14.10;84.75
13434;BME280;6789;47.678;9.158;2023-08-06T21:23:58;96784.72;;;14.05;85.00
13434;BME280;6789;47.678;9.158;2023-08-06T21:28:50;96770.03;;;14.09;84.31
13434;BME280;6789;47.678;9.158;2023-08-06T21:33:43;96794.25;;;14.06;84.77
13434;BME280;6789;47.678;9.158;2023-08-06T21:38:49;96804.00;;;14.05;84.86
13434;BME280;6789;47.678;9.158;2023-08-06T21:43:49;96804.25;;;14.04;85.19
13434;BME280;6789;47.678;9.158;2023-08-06T21:48:43;96806.91;;;14.04;85.37
13434;BME280;6789;47.678;9.158;2023-08-06T21:53:37;96818.53;;;14.08;85.16
13434;BME280;6789;47.678;9.158;2023-08-06T21:58:29;96819.28;;;14.03;85.08
13434;BME280;6789;47.678;9.158;2023-08-06T22:03:21;96820.81;;;13.99;85.58
13434;BME280;6789;47.678;9.158;2023-08-06T22:08:16;96820.31;;;14.02;84.66
13434;BME280;6789;47.678;9.158;2023-08-06T22:13:08;96829.03;;;14.03;84.40
13434;BME280;6789;47.678;9.158;2023-08-06T22:18:00;96832.69;;;14.02;84.91
13434;BME280;6789;47.678;9.158;2023-08-06T22:22:53;96825.25;;;13.99;84.35
13434;BME280;6789;47.678;9.158;2023-08-06T22:27:44;96827.38;;;13.97;85.41
13434;BME280;6789;47.678;9.158;2023-08-06T22:32:37;96819.13;;;13.93;84.60
13434;BME280;6789;47.678;9.158;2023-08-06T22:37:29;96819.66;;;13.95;84.19
13434;BME280;6789;47.678;9.158;2023-08-06T22:42:21;96828.34;;;13.91;83.98
13434;BME280;6789;47.678;9.158;2023-08-06T22:47:13;96822.44;;;13.84;84.28
13434;BME280;6789;47.678;9.158;2023-08-06T22:52:05;96822.75;;;13.87;84.79
13434;BME280;6789;47.678;9.158;2023-08-06T22:56:57;96822.50;;;13.89;83.53
13434;BME280;6789;47.678;9.158;2023-08-06T23:01:48;96827.53;;;13.90;83.50
13434;BME280;6789;47.678;9.158;2023-08-06T23:06:40;96837.22;;;13.85;84.68
13434;BME280;6789;47.678;9.158;2023-08-06T23:11:32;96836.66;;;13.83;85.47
13434;BME280;6789;47.678;9.158;2023-08-06T23:16:25;96845.97;;;13.74;86.18
13434;BME280;6789;47.678;9.158;2023-08-06T23:21:17;96847.13;;;13.78;86.27
13434;BME280;6789;47.678;9.158;2023-08-06T23:26:09;96856.31;;;13.75;86.29
13434;BME280;6789;47.678;9.158;2023-08-06T23:31:01;96861.72;;;13.69;87.43
13434;BME280;6789;47.678;9.158;2023-08-06T23:36:01;96852.78;;;13.70;86.64
13434;BME280;6789;47.678;9.158;2023-08-06T23:40:52;96851.75;;;13.71;86.22
13434;BME280;6789;47.678;9.158;2023-08-06T23:45:44;96850.94;;;13.70;86.38
13434;BME280;6789;47.678;9.158;2023-08-06T23:50:36;96851.19;;;13.69;86.71
13434;BME280;6789;47.678;9.158;2023-08-06T23:55:29;96855.03;;;13.61;87.85
